Time;durP1;ratioP1;P1;durP2;ratioP2;P2;SDS_P1;SDS_P2;PMS_P1;PMS_P2;Temp;Humidity;BMP_temperature;BMP_pressure;BME280_temperature;BME280_humidity;BME280_pressure;Samples;Min_cycle;Max_cycle;Signal;HPM_P1;HPM_P2
2022/11/12 00:00:17;;;;;;;;;;;;;;;;;;5034305;28;20443;-69
2022/11/12 00:02:43;;;;;;;;;;;;;;;;;;5036194;28;19921;-68
2022/11/12 00:05:09;;;;;;;;;;;;;;;;;;5031557;28;19965;-70
2022/11/12 00:07:35;;;;;;;;;;;;;;;;;;5031070;28;20212;-69
2022/11/12 00:10:01;;;;;;;;;;;;;;;;;;5034163;28;19937;-70
2022/11/12 00:12:27;;;;;;;;;;;;;;;;;;5027843;28;19921;-70
2022/11/12 00:14:53;;;;;;;;;;;;;;;;;;5027472;28;20260;-71
2022/11/12 00:17:18;;;;;;;;;;;;;;;;;;5015923;28;20421;-69
2022/11/12 00:19:44;;;;;;;;;;;;;;;;;;5031824;28;19925;-69
2022/11/12 00:22:10;;;;;;;;;;;;;;;;;;5033342;28;19921;-69
2022/11/12 00:24:36;;;;;;;;;;;;;;;;;;5035824;28;19991;-70
2022/11/12 00:27:02;;;;;;;;;;;;;;;;;;5029586;28;19921;-68
2022/11/12 00:29:28;;;;;;;;;;;;;;;;;;5033079;28;19928;-70
2022/11/12 00:31:54;;;;;;;;;;;;;;;;;;5031903;28;19951;-69
2022/11/12 00:34:20;;;;;;;;;;;;;;;;;;5032606;28;19935;-70
2022/11/12 00:36:46;;;;;;;;;;;;;;;;;;5035362;28;19929;-69
2022/11/12 00:39:11;;;;;;;;;;;;;;;;;;5035861;28;19921;-69
2022/11/12 00:41:37;;;;;;;;;;;;;;;;;;5033385;28;19921;-69
2022/11/12 00:44:03;;;;;;;;;;;;;;;;;;5031812;28;19932;-70
2022/11/12 00:46:30;;;;;;;;;;;;;;;;;;5031294;28;19927;-69
2022/11/12 00:48:56;;;;;;;;;;;;;;;;;;5034421;28;19975;-69
2022/11/12 00:51:22;;;;;;;;;;;;;;;;;;5035463;28;19921;-68
2022/11/12 00:53:48;;;;;;;;;;;;;;;;;;5032874;28;19921;-69
2022/11/12 00:56:14;;;;;;;;;;;;;;;;;;5029899;28;20240;-69
2022/11/12 00:58:40;;;;;;;;;;;;;;;;;;5032937;28;19921;-69
2022/11/12 01:01:06;;;;;;;;;;;;;;;;;;5032311;28;19921;-69
2022/11/12 01:03:32;;;;;;;;;;;;;;;;;;5035097;28;19928;-68
2022/11/12 01:05:58;;;;;;;;;;;;;;;;;;5038549;28;19921;-69
2022/11/12 01:08:23;;;;;;;;;;;;;;;;;;5035336;28;20272;-69
2022/11/12 01:10:49;;;;;;;;;;;;;;;;;;5030349;28;19983;-69
2022/11/12 01:13:15;;;;;;;;;;;;;;;;;;5035280;28;20359;-69
2022/11/12 01:15:41;;;;;;;;;;;;;;;;;;5032236;28;19933;-69
2022/11/12 01:18:07;;;;;;;;;;;;;;;;;;5030087;28;20007;-69
2022/11/12 01:20:33;;;;;;;;;;;;;;;;;;5031356;28;19960;-69
2022/11/12 01:22:59;;;;;;;;;;;;;;;;;;5025755;28;19921;-69
2022/11/12 01:25:25;;;;;;;;;;;;;;;;;;5028191;28;20294;-69
2022/11/12 01:27:52;;;;;;;;;;;;;;;;;;5034720;28;20397;-69
2022/11/12 01:30:18;;;;;;;;;;;;;;;;;;5026526;28;19928;-71
2022/11/12 01:32:44;;;;;;;;;;;;;;;;;;5036086;28;19921;-68
2022/11/12 01:35:10;;;;;;;;;;;;;;;;;;5035272;28;19921;-68
2022/11/12 01:37:35;;;;;;;;;;;;;;;;;;5034890;28;19921;-69
2022/11/12 01:40:01;;;;;;;;;;;;;;;;;;5034620;28;19929;-69
2022/11/12 01:42:27;;;;;;;;;;;;;;;;;;5031503;28;20294;-69
2022/11/12 01:44:53;;;;;;;;;;;;;;;;;;5034041;28;19929;-69
2022/11/12 01:47:19;;;;;;;;;;;;;;;;;;5030238;28;20371;-70
2022/11/12 01:49:45;;;;;;;;;;;;;;;;;;5033948;28;19920;-69
2022/11/12 01:52:11;;;;;;;;;;;;;;;;;;5030525;28;20223;-70
2022/11/12 01:54:37;;;;;;;;;;;;;;;;;;5030353;28;19929;-70
2022/11/12 01:57:03;;;;;;;;;;;;;;;;;;5031172;28;19927;-70
2022/11/12 01:59:29;;;;;;;;;;;;;;;;;;5034475;28;19961;-69
2022/11/12 02:01:55;;;;;;;;;;;;;;;;;;5028265;28;19967;-69
2022/11/12 02:04:21;;;;;;;;;;;;;;;;;;5027554;28;20015;-71
2022/11/12 02:06:46;;;;;;;;;;;;;;;;;;5030460;28;19957;-70
2022/11/12 02:09:12;;;;;;;;;;;;;;;;;;5031217;28;19921;-68
2022/11/12 02:11:38;;;;;;;;;;;;;;;;;;5029811;28;19922;-69
2022/11/12 02:14:04;;;;;;;;;;;;;;;;;;5030328;28;19917;-70
2022/11/12 02:16:30;;;;;;;;;;;;;;;;;;5027834;28;19928;-68
2022/11/12 02:18:56;;;;;;;;;;;;;;;;;;5027281;28;19929;-70
2022/11/12 02:21:22;;;;;;;;;;;;;;;;;;5034647;28;20008;-70
2022/11/12 02:23:48;;;;;;;;;;;;;;;;;;5031964;28;19988;-70
2022/11/12 02:26:14;;;;;;;;;;;;;;;;;;5022739;28;19994;-70
2022/11/12 02:28:40;;;;;;;;;;;;;;;;;;5029800;28;19947;-69
2022/11/12 02:31:06;;;;;;;;;;;;;;;;;;5032804;28;20374;-68
2022/11/12 02:33:32;;;;;;;;;;;;;;;;;;5024587;28;19921;-69
2022/11/12 02:35:57;;;;;;;;;;;;;;;;;;5029397;28;19928;-69
2022/11/12 02:38:23;;;;;;;;;;;;;;;;;;5026703;28;19929;-69
2022/11/12 02:40:49;;;;;;;;;;;;;;;;;;5026583;28;19921;-69
2022/11/12 02:43:15;;;;;;;;;;;;;;;;;;5032556;28;19933;-69
2022/11/12 02:45:41;;;;;;;;;;;;;;;;;;5031457;28;19924;-70
2022/11/12 02:48:07;;;;;;;;;;;;;;;;;;5032131;28;19928;-69
2022/11/12 02:50:33;;;;;;;;;;;;;;;;;;5036195;28;19951;-69
2022/11/12 02:52:59;;;;;;;;;;;;;;;;;;5038367;28;19921;-70
2022/11/12 02:55:25;;;;;;;;;;;;;;;;;;5036166;28;19921;-69
2022/11/12 02:57:50;;;;;;;;;;;;;;;;;;5039925;28;19931;-68
2022/11/12 03:00:17;;;;;;;;;;;;;;;;;;5039522;28;19925;-70
2022/11/12 03:02:57;;;;;;;;;;;;;;;;;;5027929;28;19935;-68
2022/11/12 03:05:23;;;;;;;;;;;;;;;;;;5038683;28;19925;-69
2022/11/12 03:07:49;;;;;;;;;;;;;;;;;;5036933;28;20440;-71
2022/11/12 03:10:15;;;;;;;;;;;;;;;;;;5035103;28;19920;-69
2022/11/12 03:12:41;;;;;;;;;;;;;;;;;;5036274;28;19931;-69
2022/11/12 03:15:07;;;;;;;;;;;;;;;;;;5036342;28;19921;-70
2022/11/12 03:17:32;;;;;;;;;;;;;;;;;;5036259;28;19925;-70
2022/11/12 03:19:58;;;;;;;;;;;;;;;;;;5036256;28;19927;-70
2022/11/12 03:22:24;;;;;;;;;;;;;;;;;;5037949;28;20023;-69
2022/11/12 03:24:50;;;;;;;;;;;;;;;;;;5033727;28;19961;-69
2022/11/12 03:27:16;;;;;;;;;;;;;;;;;;5039522;28;19925;-69
2022/11/12 03:29:42;;;;;;;;;;;;;;;;;;5043574;28;19928;-68
2022/11/12 03:32:08;;;;;;;;;;;;;;;;;;5037088;28;20325;-68
2022/11/12 03:34:34;;;;;;;;;;;;;;;;;;5036764;28;19921;-69
2022/11/12 03:37:00;;;;;;;;;;;;;;;;;;5036575;28;19991;-70
2022/11/12 03:39:26;;;;;;;;;;;;;;;;;;5035484;28;19975;-70
2022/11/12 03:41:51;;;;;;;;;;;;;;;;;;5035033;28;19921;-70
2022/11/12 03:44:17;;;;;;;;;;;;;;;;;;5036733;28;19921;-69
2022/11/12 03:46:43;;;;;;;;;;;;;;;;;;5036072;28;19969;-69
2022/11/12 03:49:09;;;;;;;;;;;;;;;;;;5028278;28;19977;-70
2022/11/12 03:51:35;;;;;;;;;;;;;;;;;;5034809;28;19928;-69
2022/11/12 03:54:01;;;;;;;;;;;;;;;;;;5035901;28;19925;-69
2022/11/12 03:56:27;;;;;;;;;;;;;;;;;;5033621;28;19928;-69
2022/11/12 03:58:53;;;;;;;;;;;;;;;;;;5032225;28;19925;-69
2022/11/12 04:01:19;;;;;;;;;;;;;;;;;;5051613;28;20306;-67
2022/11/12 04:03:45;;;;;;;;;;;;;;;;;;5034879;28;20008;-69
2022/11/12 04:08:55;;;;;;;;;;;;;;;;;;5034009;28;19925;-69
2022/11/12 04:11:21;;;;;;;;;;;;;;;;;;5033412;28;19928;-69
2022/11/12 04:13:47;;;;;;;;;;;;;;;;;;5033700;28;19932;-69
2022/11/12 04:21:54;;;;;;;;;;;;;;;;;;5034679;28;19967;-69
2022/11/12 04:27:05;;;;;;;;;;;;;;;;;;5030738;28;19920;-69
2022/11/12 04:32:15;;;;;;;;;;;;;;;;;;5028556;28;19921;-70
2022/11/12 04:34:41;;;;;;;;;;;;;;;;;;5026940;28;19927;-71
2022/11/12 04:37:07;;;;;;;;;;;;;;;;;;5034436;28;19924;-69
2022/11/12 04:39:33;;;;;;;;;;;;;;;;;;5021418;28;20264;-70
2022/11/12 04:47:21;;;;;;;;;;;;;;;;;;5031404;28;19917;-70
2022/11/12 04:49:47;;;;;;;;;;;;;;;;;;5029896;28;19936;-68
2022/11/12 04:52:13;;;;;;;;;;;;;;;;;;5035358;28;20397;-69
2022/11/12 04:54:39;;;;;;;;;;;;;;;;;;5030914;28;19940;-69
2022/11/12 04:57:05;;;;;;;;;;;;;;;;;;5035169;28;19925;-70
2022/11/12 04:59:31;;;;;;;;;;;;;;;;;;5028554;28;20314;-70
2022/11/12 05:01:57;;;;;;;;;;;;;;;;;;5025184;28;19925;-70
2022/11/12 05:04:26;;;;;;;;;;;;;;;;;;5032169;28;19921;-69
2022/11/12 05:06:52;;;;;;;;;;;;;;;;;;5030779;28;19925;-70
2022/11/12 05:09:18;;;;;;;;;;;;;;;;;;5031811;28;19972;-70
2022/11/12 05:11:44;;;;;;;;;;;;;;;;;;5030728;28;19975;-69
2022/11/12 05:14:10;;;;;;;;;;;;;;;;;;5028454;28;20202;-70
2022/11/12 05:16:36;;;;;;;;;;;;;;;;;;5028317;28;19929;-71
2022/11/12 05:19:02;;;;;;;;;;;;;;;;;;5028078;28;20436;-66
2022/11/12 05:24:15;;;;;;;;;;;;;;;;;;5029365;28;19921;-68
2022/11/12 05:26:41;;;;;;;;;;;;;;;;;;5015051;28;19948;-69
2022/11/12 05:29:07;;;;;;;;;;;;;;;;;;5028700;28;19925;-69
2022/11/12 05:31:33;;;;;;;;;;;;;;;;;;5030726;28;19921;-69
2022/11/12 05:33:59;;;;;;;;;;;;;;;;;;5029821;28;19929;-68
2022/11/12 05:36:25;;;;;;;;;;;;;;;;;;5032702;28;19928;-68
2022/11/12 05:38:50;;;;;;;;;;;;;;;;;;5029456;28;20011;-68
2022/11/12 05:41:16;;;;;;;;;;;;;;;;;;5028786;28;20012;-68
2022/11/12 05:43:42;;;;;;;;;;;;;;;;;;5026323;28;19943;-68
2022/11/12 05:46:08;;;;;;;;;;;;;;;;;;5010799;28;19974;-69
2022/11/12 05:48:34;;;;;;;;;;;;;;;;;;5029767;28;20278;-69
2022/11/12 05:51:00;;;;;;;;;;;;;;;;;;5026119;28;19928;-68
2022/11/12 05:53:26;;;;;;;;;;;;;;;;;;5028128;28;19928;-68
2022/11/12 05:55:52;;;;;;;;;;;;;;;;;;5028785;28;19947;-69
2022/11/12 05:58:18;;;;;;;;;;;;;;;;;;5030353;28;19976;-69
2022/11/12 06:00:43;;;;;;;;;;;;;;;;;;5026769;28;20059;-68
2022/11/12 06:03:09;;;;;;;;;;;;;;;;;;5032026;28;19943;-69
2022/11/12 06:05:36;;;;;;;;;;;;;;;;;;5030032;28;19956;-69
2022/11/12 06:08:02;;;;;;;;;;;;;;;;;;5029619;28;20034;-68
2022/11/12 06:10:28;;;;;;;;;;;;;;;;;;5031357;28;19929;-68
2022/11/12 06:12:54;;;;;;;;;;;;;;;;;;5027905;28;19928;-68
2022/11/12 06:15:20;;;;;;;;;;;;;;;;;;5036429;28;19925;-67
2022/11/12 06:17:46;;;;;;;;;;;;;;;;;;5036541;28;19920;-69
2022/11/12 06:20:12;;;;;;;;;;;;;;;;;;5033957;28;20367;-67
2022/11/12 06:22:38;;;;;;;;;;;;;;;;;;5040501;28;19928;-68
2022/11/12 06:25:04;;;;;;;;;;;;;;;;;;5040077;28;20422;-69
2022/11/12 06:27:30;;;;;;;;;;;;;;;;;;5038731;28;19921;-69
2022/11/12 06:29:56;;;;;;;;;;;;;;;;;;5035980;28;19920;-67
2022/11/12 06:32:22;;;;;;;;;;;;;;;;;;5036951;28;19928;-68
2022/11/12 06:34:49;;;;;;;;;;;;;;;;;;5039094;28;19921;-68
2022/11/12 06:37:15;;;;;;;;;;;;;;;;;;5039885;28;19932;-68
2022/11/12 06:39:41;;;;;;;;;;;;;;;;;;5036017;28;19921;-69
2022/11/12 06:42:07;;;;;;;;;;;;;;;;;;5037968;28;20341;-69
2022/11/12 06:44:33;;;;;;;;;;;;;;;;;;5030877;28;19928;-69
2022/11/12 06:46:58;;;;;;;;;;;;;;;;;;5028660;28;20476;-68
2022/11/12 06:49:24;;;;;;;;;;;;;;;;;;5036874;28;19940;-69
2022/11/12 06:51:50;;;;;;;;;;;;;;;;;;5033763;28;19928;-69
2022/11/12 06:54:16;;;;;;;;;;;;;;;;;;5035007;28;20339;-67
2022/11/12 06:56:42;;;;;;;;;;;;;;;;;;5034546;28;20268;-67
2022/11/12 06:59:08;;;;;;;;;;;;;;;;;;5035282;28;19921;-69
2022/11/12 07:01:34;;;;;;;;;;;;;;;;;;5033270;28;19964;-68
2022/11/12 07:04:00;;;;;;;;;;;;;;;;;;5035487;28;20329;-68
2022/11/12 07:06:26;;;;;;;;;;;;;;;;;;5032438;28;20437;-69
2022/11/12 07:08:52;;;;;;;;;;;;;;;;;;5035194;28;19921;-69
2022/11/12 07:11:18;;;;;;;;;;;;;;;;;;5034286;28;19921;-69
2022/11/12 07:13:44;;;;;;;;;;;;;;;;;;5033389;28;19925;-69
2022/11/12 07:16:10;;;;;;;;;;;;;;;;;;5036490;28;19921;-68
2022/11/12 07:18:36;;;;;;;;;;;;;;;;;;5037132;28;19921;-68
2022/11/12 07:21:01;;;;;;;;;;;;;;;;;;5036878;28;19921;-68
2022/11/12 07:23:27;;;;;;;;;;;;;;;;;;5034867;28;19929;-69
2022/11/12 07:25:53;;;;;;;;;;;;;;;;;;5028691;28;19925;-67
2022/11/12 07:28:20;;;;;;;;;;;;;;;;;;5033396;28;19921;-67
2022/11/12 07:30:46;;;;;;;;;;;;;;;;;;5030381;28;20389;-67
2022/11/12 07:33:11;;;;;;;;;;;;;;;;;;5034344;28;19921;-67
2022/11/12 07:35:37;;;;;;;;;;;;;;;;;;5035598;28;19921;-68
2022/11/12 07:38:03;;;;;;;;;;;;;;;;;;5034415;28;19921;-68
2022/11/12 07:40:29;;;;;;;;;;;;;;;;;;5028580;28;19921;-68
2022/11/12 07:42:55;;;;;;;;;;;;;;;;;;5035372;28;19929;-68
2022/11/12 07:45:21;;;;;;;;;;;;;;;;;;5028508;28;19928;-70
2022/11/12 07:47:47;;;;;;;;;;;;;;;;;;5030319;28;19992;-67
2022/11/12 07:50:13;;;;;;;;;;;;;;;;;;5029741;28;19929;-68
2022/11/12 07:52:39;;;;;;;;;;;;;;;;;;5032180;28;19921;-68
2022/11/12 07:55:05;;;;;;;;;;;;;;;;;;5035174;28;20441;-69
2022/11/12 07:57:31;;;;;;;;;;;;;;;;;;5032579;28;19921;-69
2022/11/12 07:59:57;;;;;;;;;;;;;;;;;;5050578;28;20280;-70
2022/11/12 08:02:23;;;;;;;;;;;;;;;;;;5026781;28;19936;-69
2022/11/12 08:04:49;;;;;;;;;;;;;;;;;;5032076;28;19929;-69
2022/11/12 08:07:15;;;;;;;;;;;;;;;;;;5029442;28;19917;-70
2022/11/12 08:09:41;;;;;;;;;;;;;;;;;;5028259;28;20191;-69
2022/11/12 08:12:07;;;;;;;;;;;;;;;;;;5029503;28;19925;-70
2022/11/12 08:14:33;;;;;;;;;;;;;;;;;;5028313;28;19925;-70
2022/11/12 08:16:59;;;;;;;;;;;;;;;;;;5031655;28;20267;-70
2022/11/12 08:19:25;;;;;;;;;;;;;;;;;;5033258;28;20363;-69
2022/11/12 08:21:51;;;;;;;;;;;;;;;;;;5031987;28;19967;-69
2022/11/12 08:24:17;;;;;;;;;;;;;;;;;;5032973;28;20409;-69
2022/11/12 08:26:42;;;;;;;;;;;;;;;;;;5031649;28;19921;-69
2022/11/12 08:29:08;;;;;;;;;;;;;;;;;;5031884;28;19928;-70
2022/11/12 08:31:34;;;;;;;;;;;;;;;;;;5028614;28;19921;-70
2022/11/12 08:34:10;;;;;;;;;;;;;;;;;;5030275;28;20302;-68
2022/11/12 08:36:36;;;;;;;;;;;;;;;;;;5028775;28;20074;-70
2022/11/12 08:39:02;;;;;;;;;;;;;;;;;;5032072;28;20011;-69
2022/11/12 08:41:28;;;;;;;;;;;;;;;;;;5014336;28;20019;-69
2022/11/12 08:43:54;;;;;;;;;;;;;;;;;;5033906;28;19921;-69
2022/11/12 08:46:20;;;;;;;;;;;;;;;;;;5014032;28;20375;-70
2022/11/12 08:48:46;;;;;;;;;;;;;;;;;;5014091;28;19921;-68
2022/11/12 08:51:12;;;;;;;;;;;;;;;;;;5027247;28;19995;-70
2022/11/12 08:53:38;;;;;;;;;;;;;;;;;;5032529;28;19936;-70
2022/11/12 08:56:04;;;;;;;;;;;;;;;;;;5033767;28;20389;-70
2022/11/12 08:58:30;;;;;;;;;;;;;;;;;;5029230;28;19964;-70
2022/11/12 09:00:56;;;;;;;;;;;;;;;;;;5012722;28;19967;-70
2022/11/12 09:03:22;;;;;;;;;;;;;;;;;;5012515;28;19921;-71
2022/11/12 09:05:48;;;;;;;;;;;;;;;;;;5026136;28;20354;-68
2022/11/12 09:08:14;;;;;;;;;;;;;;;;;;5030338;28;20387;-69
2022/11/12 09:10:40;;;;;;;;;;;;;;;;;;5032188;28;19928;-70
2022/11/12 09:13:06;;;;;;;;;;;;;;;;;;5032024;28;19979;-70
2022/11/12 09:15:32;;;;;;;;;;;;;;;;;;5032664;28;19939;-69
2022/11/12 09:17:57;;;;;;;;;;;;;;;;;;5033120;28;19964;-70
2022/11/12 09:20:23;;;;;;;;;;;;;;;;;;5033408;28;19995;-70
2022/11/12 09:22:49;;;;;;;;;;;;;;;;;;5031033;28;20398;-69
2022/11/12 09:25:15;;;;;;;;;;;;;;;;;;5030683;28;19928;-70
2022/11/12 09:27:41;;;;;;;;;;;;;;;;;;5030343;28;19928;-69
2022/11/12 09:30:07;;;;;;;;;;;;;;;;;;5033378;28;20006;-69
2022/11/12 09:32:33;;;;;;;;;;;;;;;;;;5024972;28;19965;-69
2022/11/12 09:34:59;;;;;;;;;;;;;;;;;;5018534;28;19920;-70
2022/11/12 09:37:25;;;;;;;;;;;;;;;;;;5032367;28;19925;-70
2022/11/12 09:39:51;;;;;;;;;;;;;;;;;;5033143;28;19920;-70
2022/11/12 09:42:17;;;;;;;;;;;;;;;;;;5031232;28;19943;-70
2022/11/12 09:44:42;;;;;;;;;;;;;;;;;;5032734;28;19984;-70
2022/11/12 09:47:08;;;;;;;;;;;;;;;;;;5031759;28;20367;-69
2022/11/12 09:49:34;;;;;;;;;;;;;;;;;;5018998;28;19921;-70
2022/11/12 09:52:00;;;;;;;;;;;;;;;;;;5013829;28;20017;-69
2022/11/12 09:54:26;;;;;;;;;;;;;;;;;;5032464;28;20012;-69
2022/11/12 09:56:52;;;;;;;;;;;;;;;;;;5032888;28;19927;-69
2022/11/12 09:59:18;;;;;;;;;;;;;;;;;;5032002;28;20375;-69
2022/11/12 10:01:44;;;;;;;;;;;;;;;;;;5025483;28;19983;-70
2022/11/12 10:04:10;;;;;;;;;;;;;;;;;;5013152;28;19922;-70
2022/11/12 10:06:36;;;;;;;;;;;;;;;;;;5012939;28;19921;-70
2022/11/12 10:09:02;;;;;;;;;;;;;;;;;;5022959;28;20405;-70
2022/11/12 10:11:28;;;;;;;;;;;;;;;;;;5017459;28;20410;-70
2022/11/12 10:13:53;;;;;;;;;;;;;;;;;;5013196;28;19913;-70
2022/11/12 10:19:04;;;;;;;;;;;;;;;;;;5032306;28;20293;-69
2022/11/12 10:21:30;;;;;;;;;;;;;;;;;;5031722;28;19921;-68
2022/11/12 10:23:56;;;;;;;;;;;;;;;;;;5032611;28;19921;-69
2022/11/12 10:26:22;;;;;;;;;;;;;;;;;;5029352;28;19921;-69
2022/11/12 10:28:48;;;;;;;;;;;;;;;;;;5031424;28;20011;-68
2022/11/12 10:31:14;;;;;;;;;;;;;;;;;;5029276;28;20402;-69
2022/11/12 10:33:40;;;;;;;;;;;;;;;;;;5031448;28;20426;-70
2022/11/12 10:36:06;;;;;;;;;;;;;;;;;;5031832;28;19921;-69
2022/11/12 10:38:32;;;;;;;;;;;;;;;;;;5031253;28;20413;-69
2022/11/12 10:40:57;;;;;;;;;;;;;;;;;;5030627;28;19983;-69
2022/11/12 10:43:23;;;;;;;;;;;;;;;;;;5031173;28;19924;-70
2022/11/12 10:45:49;;;;;;;;;;;;;;;;;;5030142;28;19940;-69
2022/11/12 10:48:15;;;;;;;;;;;;;;;;;;5025640;28;19956;-70
2022/11/12 10:50:41;;;;;;;;;;;;;;;;;;5030465;28;19925;-70
2022/11/12 10:53:07;;;;;;;;;;;;;;;;;;5030313;28;19921;-68
2022/11/12 10:55:33;;;;;;;;;;;;;;;;;;5030965;28;19921;-68
2022/11/12 10:57:59;;;;;;;;;;;;;;;;;;5031899;28;19921;-69
2022/11/12 11:00:25;;;;;;;;;;;;;;;;;;5030212;28;20344;-69
2022/11/12 11:02:51;;;;;;;;;;;;;;;;;;5018063;28;20415;-69
2022/11/12 11:05:17;;;;;;;;;;;;;;;;;;5035656;28;19929;-69
2022/11/12 11:07:43;;;;;;;;;;;;;;;;;;5035458;28;20375;-70
2022/11/12 11:10:09;;;;;;;;;;;;;;;;;;5034367;28;19928;-68
2022/11/12 11:12:35;;;;;;;;;;;;;;;;;;5016042;28;19929;-70
2022/11/12 11:15:01;;;;;;;;;;;;;;;;;;5016594;28;20286;-69
2022/11/12 11:17:27;;;;;;;;;;;;;;;;;;5026437;28;19932;-69
2022/11/12 11:19:53;;;;;;;;;;;;;;;;;;5034413;28;19928;-70
2022/11/12 11:22:19;;;;;;;;;;;;;;;;;;5030883;28;19921;-69
2022/11/12 11:24:44;;;;;;;;;;;;;;;;;;5027560;28;20299;-69
2022/11/12 11:27:10;;;;;;;;;;;;;;;;;;5028463;28;20188;-71
2022/11/12 11:29:36;;;;;;;;;;;;;;;;;;5033382;28;19925;-68
2022/11/12 11:32:02;;;;;;;;;;;;;;;;;;5031771;28;20397;-68
2022/11/12 11:34:28;;;;;;;;;;;;;;;;;;5030691;28;19921;-70
2022/11/12 11:36:54;;;;;;;;;;;;;;;;;;5032369;28;20341;-69
2022/11/12 11:39:20;;;;;;;;;;;;;;;;;;5030319;28;19928;-68
2022/11/12 11:41:46;;;;;;;;;;;;;;;;;;5032832;28;19928;-69
2022/11/12 11:44:12;;;;;;;;;;;;;;;;;;5034661;28;19921;-70
2022/11/12 11:46:38;;;;;;;;;;;;;;;;;;5027565;28;21282;-70
2022/11/12 11:49:04;;;;;;;;;;;;;;;;;;5028485;28;19928;-70
2022/11/12 11:51:30;;;;;;;;;;;;;;;;;;5032648;28;19925;-69
2022/11/12 11:53:56;;;;;;;;;;;;;;;;;;5033198;28;19929;-67
2022/11/12 11:56:21;;;;;;;;;;;;;;;;;;5032136;28;19921;-69
2022/11/12 11:58:47;;;;;;;;;;;;;;;;;;5031296;28;19928;-68
2022/11/12 12:01:13;;;;;;;;;;;;;;;;;;5032940;28;19921;-68
2022/11/12 12:03:39;;;;;;;;;;;;;;;;;;5024460;28;19964;-69
2022/11/12 12:06:05;;;;;;;;;;;;;;;;;;5026991;28;20008;-70
2022/11/12 12:08:31;;;;;;;;;;;;;;;;;;5033548;28;20362;-70
2022/11/12 12:10:57;;;;;;;;;;;;;;;;;;5028483;28;19976;-69
2022/11/12 12:13:23;;;;;;;;;;;;;;;;;;5032298;28;19928;-69
2022/11/12 12:15:49;;;;;;;;;;;;;;;;;;5029076;28;19921;-69
2022/11/12 12:18:15;;;;;;;;;;;;;;;;;;5030352;28;20053;-69
2022/11/12 12:20:41;;;;;;;;;;;;;;;;;;5027623;28;19925;-70
2022/11/12 12:23:07;;;;;;;;;;;;;;;;;;5033153;28;20231;-69
2022/11/12 12:25:33;;;;;;;;;;;;;;;;;;5028508;28;20386;-70
2022/11/12 12:27:59;;;;;;;;;;;;;;;;;;5017054;28;20390;-70
2022/11/12 12:30:25;;;;;;;;;;;;;;;;;;5024043;28;19929;-70
2022/11/12 12:32:51;;;;;;;;;;;;;;;;;;5032621;28;20433;-70
2022/11/12 12:35:17;;;;;;;;;;;;;;;;;;5031195;28;19972;-71
2022/11/12 12:37:43;;;;;;;;;;;;;;;;;;5030095;28;19927;-69
2022/11/12 12:40:09;;;;;;;;;;;;;;;;;;5029534;28;20401;-69
2022/11/12 12:42:35;;;;;;;;;;;;;;;;;;5039071;28;19925;-70
2022/11/12 12:45:04;;;;;;;;;;;;;;;;;;5012888;28;20323;-70
2022/11/12 12:47:30;;;;;;;;;;;;;;;;;;5029419;28;20382;-69
2022/11/12 12:49:56;;;;;;;;;;;;;;;;;;5031257;28;19921;-70
2022/11/12 12:52:22;;;;;;;;;;;;;;;;;;5031829;28;20333;-69
2022/11/12 12:54:48;;;;;;;;;;;;;;;;;;5033740;28;19925;-70
2022/11/12 12:57:14;;;;;;;;;;;;;;;;;;5031818;28;19921;-70
2022/11/12 12:59:40;;;;;;;;;;;;;;;;;;5031123;28;19944;-69
2022/11/12 13:02:07;;;;;;;;;;;;;;;;;;5028436;28;19917;-69
2022/11/12 13:04:33;;;;;;;;;;;;;;;;;;5025538;28;19924;-71
2022/11/12 13:06:59;;;;;;;;;;;;;;;;;;5027892;28;19975;-70
2022/11/12 13:09:25;;;;;;;;;;;;;;;;;;5029514;28;19983;-70
2022/11/12 13:14:29;;;;;;;;;;;;;;;;;;5026027;28;19927;-70
2022/11/12 13:16:55;;;;;;;;;;;;;;;;;;5028304;28;20461;-70
2022/11/12 13:19:20;;;;;;;;;;;;;;;;;;5019511;28;20411;-70
2022/11/12 13:21:46;;;;;;;;;;;;;;;;;;5025161;28;19925;-72
2022/11/12 13:24:12;;;;;;;;;;;;;;;;;;5026638;28;19928;-72
2022/11/12 13:26:38;;;;;;;;;;;;;;;;;;5014573;28;19932;-71
2022/11/12 13:29:04;;;;;;;;;;;;;;;;;;5031844;28;19921;-69
2022/11/12 13:31:32;;;;;;;;;;;;;;;;;;5025823;28;20048;-70
2022/11/12 13:33:58;;;;;;;;;;;;;;;;;;5028644;28;19940;-70
2022/11/12 13:36:24;;;;;;;;;;;;;;;;;;5031376;28;20015;-70
2022/11/12 13:38:51;;;;;;;;;;;;;;;;;;5013852;28;20012;-69
2022/11/12 13:41:17;;;;;;;;;;;;;;;;;;5029539;28;19925;-70
2022/11/12 13:43:42;;;;;;;;;;;;;;;;;;5029128;28;19944;-71
2022/11/12 13:46:09;;;;;;;;;;;;;;;;;;5030403;28;20023;-70
2022/11/12 13:48:35;;;;;;;;;;;;;;;;;;5029357;28;19928;-71
2022/11/12 13:51:01;;;;;;;;;;;;;;;;;;5029060;28;19921;-70
2022/11/12 13:53:27;;;;;;;;;;;;;;;;;;5029034;28;19943;-70
2022/11/12 13:55:53;;;;;;;;;;;;;;;;;;5022436;28;19929;-70
2022/11/12 13:58:19;;;;;;;;;;;;;;;;;;5026448;28;19921;-71
2022/11/12 14:00:45;;;;;;;;;;;;;;;;;;5028667;28;19921;-70
2022/11/12 14:03:11;;;;;;;;;;;;;;;;;;5027112;28;19932;-70
2022/11/12 14:05:38;;;;;;;;;;;;;;;;;;5030515;28;19921;-71
2022/11/12 14:08:04;;;;;;;;;;;;;;;;;;5030092;28;19928;-70
2022/11/12 14:10:30;;;;;;;;;;;;;;;;;;5025174;28;19921;-70
2022/11/12 14:12:56;;;;;;;;;;;;;;;;;;5027874;28;20286;-71
2022/11/12 14:15:22;;;;;;;;;;;;;;;;;;5027972;28;19924;-70
2022/11/12 14:17:48;;;;;;;;;;;;;;;;;;5022639;28;19929;-72
2022/11/12 14:20:14;;;;;;;;;;;;;;;;;;5021857;28;19944;-70
2022/11/12 14:22:40;;;;;;;;;;;;;;;;;;5023479;28;19998;-71
2022/11/12 14:25:06;;;;;;;;;;;;;;;;;;5028771;28;19928;-70
2022/11/12 14:27:32;;;;;;;;;;;;;;;;;;5025396;28;19927;-70
2022/11/12 14:29:58;;;;;;;;;;;;;;;;;;5028794;28;19925;-71
2022/11/12 14:32:24;;;;;;;;;;;;;;;;;;5026457;28;19928;-71
2022/11/12 14:34:50;;;;;;;;;;;;;;;;;;5031307;28;19944;-71
2022/11/12 14:37:16;;;;;;;;;;;;;;;;;;5021756;28;20290;-70
2022/11/12 14:39:42;;;;;;;;;;;;;;;;;;5035966;28;20363;-70
2022/11/12 14:42:08;;;;;;;;;;;;;;;;;;5034301;28;19921;-70
2022/11/12 14:44:34;;;;;;;;;;;;;;;;;;5033320;28;20411;-69
2022/11/12 14:47:00;;;;;;;;;;;;;;;;;;5025326;28;19928;-70
2022/11/12 14:49:26;;;;;;;;;;;;;;;;;;5032045;28;19929;-71
2022/11/12 14:51:51;;;;;;;;;;;;;;;;;;5031706;28;19921;-71
2022/11/12 14:54:17;;;;;;;;;;;;;;;;;;5023749;28;20334;-71
2022/11/12 14:56:43;;;;;;;;;;;;;;;;;;5026681;28;19925;-70
2022/11/12 14:59:09;;;;;;;;;;;;;;;;;;5025489;28;19974;-71
2022/11/12 15:01:35;;;;;;;;;;;;;;;;;;5021343;28;19921;-71
2022/11/12 15:04:01;;;;;;;;;;;;;;;;;;5029748;28;20326;-70
2022/11/12 15:06:27;;;;;;;;;;;;;;;;;;5029726;28;19984;-71
2022/11/12 15:08:53;;;;;;;;;;;;;;;;;;5022580;28;19921;-71
2022/11/12 15:11:19;;;;;;;;;;;;;;;;;;5024778;28;19925;-71
2022/11/12 15:13:45;;;;;;;;;;;;;;;;;;5021820;28;19929;-71
2022/11/12 15:16:10;;;;;;;;;;;;;;;;;;5020695;28;19928;-71
2022/11/12 15:18:36;;;;;;;;;;;;;;;;;;5025175;28;19944;-70
2022/11/12 15:21:02;;;;;;;;;;;;;;;;;;5025442;28;19944;-71
2022/11/12 15:23:28;;;;;;;;;;;;;;;;;;5043937;28;19928;-71
2022/11/12 15:25:54;;;;;;;;;;;;;;;;;;5027937;28;19932;-70
2022/11/12 15:28:20;;;;;;;;;;;;;;;;;;5023337;28;19928;-72
2022/11/12 15:30:46;;;;;;;;;;;;;;;;;;5027829;28;19944;-71
2022/11/12 15:33:12;;;;;;;;;;;;;;;;;;5030455;28;19927;-72
2022/11/12 15:35:42;;;;;;;;;;;;;;;;;;5031871;28;19940;-70
2022/11/12 15:38:08;;;;;;;;;;;;;;;;;;5028499;28;19928;-70
2022/11/12 15:40:34;;;;;;;;;;;;;;;;;;5031052;28;19921;-71
2022/11/12 15:43:00;;;;;;;;;;;;;;;;;;5033334;28;19921;-73
2022/11/12 15:45:26;;;;;;;;;;;;;;;;;;5026663;28;20449;-72
2022/11/12 15:47:52;;;;;;;;;;;;;;;;;;5030455;28;19924;-72
2022/11/12 15:50:18;;;;;;;;;;;;;;;;;;5029980;28;19921;-73
2022/11/12 15:52:44;;;;;;;;;;;;;;;;;;5028839;28;20379;-74
2022/11/12 15:55:10;;;;;;;;;;;;;;;;;;5029347;28;19928;-74
2022/11/12 15:57:35;;;;;;;;;;;;;;;;;;5024056;28;19929;-73
2022/11/12 16:00:01;;;;;;;;;;;;;;;;;;5027741;28;19921;-73
2022/11/12 16:02:27;;;;;;;;;;;;;;;;;;5028929;28;19943;-72
2022/11/12 16:04:53;;;;;;;;;;;;;;;;;;5029967;28;19975;-73
2022/11/12 16:07:19;;;;;;;;;;;;;;;;;;5029243;28;19921;-74
2022/11/12 16:09:45;;;;;;;;;;;;;;;;;;5031892;28;19995;-73
2022/11/12 16:12:11;;;;;;;;;;;;;;;;;;5032254;28;20371;-74
2022/11/12 16:14:37;;;;;;;;;;;;;;;;;;5029012;28;19928;-73
2022/11/12 16:17:03;;;;;;;;;;;;;;;;;;5031021;28;19920;-75
2022/11/12 16:19:32;;;;;;;;;;;;;;;;;;5028899;28;19928;-73
2022/11/12 16:21:58;;;;;;;;;;;;;;;;;;5029549;28;19921;-72
2022/11/12 16:24:24;;;;;;;;;;;;;;;;;;5028826;28;20345;-71
2022/11/12 16:26:50;;;;;;;;;;;;;;;;;;5025594;28;19925;-73
2022/11/12 16:29:16;;;;;;;;;;;;;;;;;;5029386;28;19929;-73
2022/11/12 16:31:43;;;;;;;;;;;;;;;;;;5038935;28;19928;-74
2022/11/12 16:34:09;;;;;;;;;;;;;;;;;;5039600;28;19932;-72
2022/11/12 16:36:35;;;;;;;;;;;;;;;;;;5037178;28;19920;-72
2022/11/12 16:39:01;;;;;;;;;;;;;;;;;;5040313;28;19931;-72
2022/11/12 16:41:27;;;;;;;;;;;;;;;;;;5037070;28;19936;-72
2022/11/12 16:43:52;;;;;;;;;;;;;;;;;;5025312;28;20381;-72
2022/11/12 16:46:18;;;;;;;;;;;;;;;;;;5026989;28;19925;-72
2022/11/12 16:48:44;;;;;;;;;;;;;;;;;;5010843;28;19917;-71
2022/11/12 16:51:10;;;;;;;;;;;;;;;;;;5025876;28;19932;-71
2022/11/12 16:53:36;;;;;;;;;;;;;;;;;;5029609;28;19921;-72
2022/11/12 16:56:02;;;;;;;;;;;;;;;;;;5030260;28;19921;-69
2022/11/12 16:58:28;;;;;;;;;;;;;;;;;;5029500;28;19921;-71
2022/11/12 17:00:54;;;;;;;;;;;;;;;;;;5028316;28;19921;-71
2022/11/12 17:03:20;;;;;;;;;;;;;;;;;;5026358;28;19921;-70